• Join FlightAware (Why Join?)
  • Login
  • US Flag 
01:03AM EST


 

Airport Tracker/Info


-or-


 

Live Flight TrackerFlight Track Log ✈ SWA4555 ✈ 07-Apr-2013 ✈ KSAN - KSJC

Flight Track Log - Related Links

Times and Time Zones

All times are in EDT time to prevent confusion due to time zone crossing. See the SWA4555 flight status page for this flight to view local times or setup timezone preferences in your user account.

Time Position Orientation Groundspeed Altitude Reporting Facility
EDT Latitude Longitude Course Direction KTS MPH feet Rate Location/Type
06:54PM 32.7450 -117.2208 301° West 165 190 1,400  Level Los Angeles Center
06:55PM 32.7758 -117.2808 301° West 204 235 3,600 2,820 Climbing Los Angeles Center
06:56PM 32.8164 -117.3547 303° West 246 283 7,300 3,780 Climbing Los Angeles Center
06:57PM 32.8567 -117.4292 303° West 263 303 11,500 2,940 Climbing Los Angeles Center
06:58PM 32.9133 -117.5081 311° West 319 367 13,400 2,400 Climbing Los Angeles Center
06:59PM 32.9978 -117.5689 329° Northwest 347 399 16,500 2,460 Climbing Los Angeles Center
07:00PM 33.0669 -117.6600 312° West 368 423 19,100 960 Climbing Los Angeles Center
07:02PM 33.1550 -117.7961 308° West 370 426 19,000 660 Descending Los Angeles Center
07:03PM 33.2125 -117.9231 298° West 366 421 20,700 1,920 Climbing Los Angeles Center
07:04PM 33.2497 -118.0428 290° West 379 436 23,000 2,160 Climbing Los Angeles Center
07:05PM 33.3000 -118.1528 299° West 383 441 25,200 2,160 Climbing Los Angeles Center
07:06PM 33.3700 -118.2461 312° West 375 432 27,500 2,280 Climbing Los Angeles Center
07:07PM 33.4406 -118.3381 313° West 375 432 30,000 1,380 Climbing Los Angeles Center
07:08PM 33.5300 -118.4550 313° West 390 449 30,400 1,380 Climbing Los Angeles Center
07:09PM 33.6044 -118.5550 312° West 396 456 32,900 1,740 Climbing Los Angeles Center
07:10PM 33.6772 -118.6522 312° West 388 447 34,000 960 Climbing Los Angeles Center
07:11PM 33.7531 -118.7528 312° West 401 461 34,900 960 Climbing Los Angeles Center
07:12PM 33.8297 -118.8533 313° West 407 468 36,000 480 Climbing Los Angeles Center
07:13PM 33.9039 -118.9536 312° West 402 463 36,000  Level Los Angeles Center
07:14PM 33.9839 -119.0450 317° Northwest 395 455 36,000  Level Los Angeles Center
07:15PM 34.0892 -119.1458 322° Northwest 401 461 36,000  Level Los Angeles Center
07:16PM 34.1769 -119.2294 322° Northwest 401 461 36,000  Level Los Angeles Center
07:17PM 34.2647 -119.3144 321° Northwest 404 465 36,000  Level Los Angeles Center
07:18PM 34.3511 -119.3992 321° Northwest 400 460 36,000  Level Los Angeles Center
07:19PM 34.4383 -119.4817 322° Northwest 398 458 36,000  Level Los Angeles Center
07:20PM 34.5231 -119.5644 321° Northwest 393 452 36,000  Level Los Angeles Center
07:21PM 34.6186 -119.6567 322° Northwest 393 452 36,000  Level Los Angeles Center
07:22PM 34.7028 -119.7394 321° Northwest 392 451 36,000  Level Los Angeles Center
07:23PM 34.7381 -119.8608 290° West 379 436 36,000  Level Los Angeles Center
07:24PM 34.7742 -119.9819 290° West 379 436 36,000  Level Los Angeles Center
07:25PM 34.8597 -120.0936 313° West 396 456 36,000  Level Los Angeles Center
07:27PM 34.9447 -120.1617 327° Northwest 402 463 36,000  Level Los Angeles Center
07:28PM 35.0356 -120.2353 326° Northwest 395 455 36,000  Level Los Angeles Center
07:29PM 35.1439 -120.3219 327° Northwest 391 450 36,000  Level Los Angeles Center
07:30PM 35.2347 -120.3953 327° Northwest 391 450 36,000  Level Los Angeles Center
07:31PM 35.3239 -120.4692 326° Northwest 391 450 36,000  Level Los Angeles Center
07:31PM 35.3767 -120.5128 326° Northwest 395 455 36,000  Level Oakland Center
07:32PM 35.4697 -120.5889 326° Northwest 393 452 36,000  Level Oakland Center
07:33PM 35.5603 -120.6625 327° Northwest 389 448 36,000  Level Oakland Center
07:34PM 35.6497 -120.7367 326° Northwest 387 445 36,000  Level Oakland Center
07:35PM 35.7400 -120.8114 326° Northwest 388 447 36,000 -300 Level Oakland Center
07:36PM 35.8289 -120.8839 327° Northwest 385 443 35,400 -1,380 Descending Oakland Center
07:37PM 35.9311 -120.9686 326° Northwest 370 426 33,200 -2,460 Descending Oakland Center
07:38PM 36.0114 -121.0358 326° Northwest 353 406 30,500 -2,940 Descending Oakland Center
07:39PM 36.0933 -121.1086 324° Northwest 359 413 27,200 -2,700 Descending Oakland Center
07:40PM 36.1789 -121.1794 326° Northwest 367 422 25,000 -1,680 Descending Oakland Center
07:41PM 36.2569 -121.2447 326° Northwest 338 389 23,900 -1,380 Descending Oakland Center
07:42PM 36.3294 -121.3078 325° Northwest 323 372 22,200 -1,740 Descending Oakland Center
07:43PM 36.3994 -121.3694 325° Northwest 307 353 20,400 -1,860 Descending Oakland Center
07:45PM 36.4711 -121.4294 326° Northwest 309 356 18,500 -1,980 Descending Oakland Center
07:46PM 36.5600 -121.4533 348° North 328 377 16,400 -1,980 Descending Oakland Center
07:47PM 36.6639 -121.4758 350° North 313 360 14,500 -1,800 Descending Oakland Center
07:48PM 36.7467 -121.4972 348° North 304 350 12,800 -1,620 Descending Oakland Center
07:49PM 36.8222 -121.5175 348° North 293 337 11,200 -1,440 Descending Oakland Center
07:50PM 36.8906 -121.5583 334° Northwest 272 313 9,900 -1,380 Descending Oakland Center
07:51PM 36.9547 -121.5989 333° Northwest 261 300 8,400 -1,620 Descending Oakland Center
07:52PM 37.0208 -121.6356 336° Northwest 259 298 6,700 -1,560 Descending Oakland Center
07:53PM 37.0892 -121.6722 337° Northwest 264 304 5,300 -1,020 Descending Oakland Center
07:53PM 37.1500 -121.7000 340° North 243 280 5,000 -540 Descending Northern Cal TRACON
07:54PM 37.1650 -121.7133 325° Northwest 256 295 4,800 -1,380 Descending Oakland Center
07:55PM 37.2153 -121.7633 322° Northwest 242 278 3,200 -1,140 Descending Oakland Center
07:56PM 37.2592 -121.8167 316° Northwest 230 265 2,500 -840 Descending Oakland Center
07:57PM 37.2931 -121.8542 319° Northwest 188 216 1,600 -840 Descending Oakland Center
07:58PM 37.3219 -121.8858 319° Northwest 160 184 900 -720 Descending Oakland Center
07:59PM 37.3475 -121.9147 318° Northwest 139 160 200 -720 Descending Oakland Center
08:01PM 37.3500 -121.9167 North  Level FlightAware Approximate
08:08PM 37.3627 -121.9291 North  Level Estimated